sensor_id;sensor_type;location;lat;lon;timestamp;P1;durP1;ratioP1;P2;durP2;ratioP2
82417;SDS011;75985;53.734;10.260;2024-03-23T00:54:04;15.63;;;4.00;;
82417;SDS011;75985;53.734;10.260;2024-03-23T00:57:08;31.52;;;6.03;;
82417;SDS011;75985;53.734;10.260;2024-03-23T01:00:13;19.10;;;4.92;;
82417;SDS011;75985;53.734;10.260;2024-03-23T01:03:18;19.25;;;4.85;;
82417;SDS011;75985;53.734;10.260;2024-03-23T01:06:23;18.15;;;5.45;;
82417;SDS011;75985;53.734;10.260;2024-03-23T01:09:27;28.15;;;6.53;;
82417;SDS011;75985;53.734;10.260;2024-03-23T01:12:32;23.87;;;4.72;;
82417;SDS011;75985;53.734;10.260;2024-03-23T01:15:36;24.43;;;5.12;;
82417;SDS011;75985;53.734;10.260;2024-03-23T01:18:41;25.60;;;4.83;;
82417;SDS011;75985;53.734;10.260;2024-03-23T01:21:45;21.97;;;4.92;;
82417;SDS011;75985;53.734;10.260;2024-03-23T01:24:51;32.03;;;4.35;;
82417;SDS011;75985;53.734;10.260;2024-03-23T01:27:56;23.15;;;4.55;;
82417;SDS011;75985;53.734;10.260;2024-03-23T01:31:01;17.55;;;3.45;;
82417;SDS011;75985;53.734;10.260;2024-03-23T01:34:05;14.28;;;3.77;;
82417;SDS011;75985;53.734;10.260;2024-03-23T01:37:10;12.00;;;3.35;;
82417;SDS011;75985;53.734;10.260;2024-03-23T01:40:16;28.45;;;5.33;;
82417;SDS011;75985;53.734;10.260;2024-03-23T01:43:20;17.70;;;3.83;;
82417;SDS011;75985;53.734;10.260;2024-03-23T01:46:25;18.37;;;4.45;;
82417;SDS011;75985;53.734;10.260;2024-03-23T01:49:29;17.15;;;3.70;;
82417;SDS011;75985;53.734;10.260;2024-03-23T01:52:34;20.55;;;4.67;;
82417;SDS011;75985;53.734;10.260;2024-03-23T01:55:38;13.30;;;3.60;;
82417;SDS011;75985;53.734;10.260;2024-03-23T01:58:43;19.17;;;4.00;;
82417;SDS011;75985;53.734;10.260;2024-03-23T02:01:48;16.07;;;3.92;;
82417;SDS011;75985;53.734;10.260;2024-03-23T02:04:53;19.55;;;4.10;;
82417;SDS011;75985;53.734;10.260;2024-03-23T02:07:57;18.98;;;5.25;;
82417;SDS011;75985;53.734;10.260;2024-03-23T02:11:02;22.73;;;5.05;;
82417;SDS011;75985;53.734;10.260;2024-03-23T02:14:07;18.87;;;4.62;;
82417;SDS011;75985;53.734;10.260;2024-03-23T02:17:11;15.68;;;3.60;;
82417;SDS011;75985;53.734;10.260;2024-03-23T02:20:17;16.12;;;4.28;;
82417;SDS011;75985;53.734;10.260;2024-03-23T02:23:22;16.32;;;4.42;;
82417;SDS011;75985;53.734;10.260;2024-03-23T02:26:28;22.95;;;4.00;;
82417;SDS011;75985;53.734;10.260;2024-03-23T02:29:33;14.98;;;3.92;;
82417;SDS011;75985;53.734;10.260;2024-03-23T02:32:37;13.22;;;3.95;;
82417;SDS011;75985;53.734;10.260;2024-03-23T02:35:43;10.58;;;3.35;;
82417;SDS011;75985;53.734;10.260;2024-03-23T02:38:48;14.70;;;3.83;;
82417;SDS011;75985;53.734;10.260;2024-03-23T02:41:53;11.63;;;3.80;;
82417;SDS011;75985;53.734;10.260;2024-03-23T02:44:58;9.93;;;2.92;;
82417;SDS011;75985;53.734;10.260;2024-03-23T02:48:03;8.35;;;2.92;;
82417;SDS011;75985;53.734;10.260;2024-03-23T02:51:07;17.65;;;4.28;;
82417;SDS011;75985;53.734;10.260;2024-03-23T02:54:12;9.33;;;3.90;;
82417;SDS011;75985;53.734;10.260;2024-03-23T02:57:17;13.40;;;4.15;;
82417;SDS011;75985;53.734;10.260;2024-03-23T03:00:21;11.73;;;3.37;;
82417;SDS011;75985;53.734;10.260;2024-03-23T03:03:26;16.37;;;4.42;;
82417;SDS011;75985;53.734;10.260;2024-03-23T03:06:30;13.10;;;3.95;;
82417;SDS011;75985;53.734;10.260;2024-03-23T03:09:35;13.48;;;4.20;;
82417;SDS011;75985;53.734;10.260;2024-03-23T03:12:41;20.77;;;4.72;;
82417;SDS011;75985;53.734;10.260;2024-03-23T03:15:46;17.23;;;4.35;;
82417;SDS011;75985;53.734;10.260;2024-03-23T03:18:50;9.40;;;3.87;;
82417;SDS011;75985;53.734;10.260;2024-03-23T03:21:55;13.15;;;3.72;;
82417;SDS011;75985;53.734;10.260;2024-03-23T03:24:59;12.63;;;3.77;;
82417;SDS011;75985;53.734;10.260;2024-03-23T03:28:05;7.42;;;3.27;;
82417;SDS011;75985;53.734;10.260;2024-03-23T03:31:09;9.38;;;3.33;;
82417;SDS011;75985;53.734;10.260;2024-03-23T03:34:14;5.62;;;2.65;;
82417;SDS011;75985;53.734;10.260;2024-03-23T03:37:18;4.37;;;2.40;;
82417;SDS011;75985;53.734;10.260;2024-03-23T03:40:23;5.45;;;2.30;;
82417;SDS011;75985;53.734;10.260;2024-03-23T03:43:27;3.42;;;1.80;;
82417;SDS011;75985;53.734;10.260;2024-03-23T03:46:32;2.92;;;1.95;;
82417;SDS011;75985;53.734;10.260;2024-03-23T03:49:36;2.65;;;2.05;;
82417;SDS011;75985;53.734;10.260;2024-03-23T03:52:41;3.40;;;1.70;;
82417;SDS011;75985;53.734;10.260;2024-03-23T03:55:45;3.02;;;2.15;;
82417;SDS011;75985;53.734;10.260;2024-03-23T03:58:50;9.35;;;2.60;;
82417;SDS011;75985;53.734;10.260;2024-03-23T04:01:54;7.70;;;2.17;;
82417;SDS011;75985;53.734;10.260;2024-03-23T04:04:59;11.60;;;3.47;;
82417;SDS011;75985;53.734;10.260;2024-03-23T04:08:04;8.95;;;3.08;;
82417;SDS011;75985;53.734;10.260;2024-03-23T04:11:09;7.53;;;2.70;;
82417;SDS011;75985;53.734;10.260;2024-03-23T04:14:14;5.47;;;2.27;;
82417;SDS011;75985;53.734;10.260;2024-03-23T04:17:18;4.72;;;2.05;;
82417;SDS011;75985;53.734;10.260;2024-03-23T04:20:23;3.22;;;1.82;;
82417;SDS011;75985;53.734;10.260;2024-03-23T04:23:28;3.52;;;1.95;;
82417;SDS011;75985;53.734;10.260;2024-03-23T04:26:42;3.67;;;2.25;;
82417;SDS011;75985;53.734;10.260;2024-03-23T04:29:47;4.85;;;2.15;;
82417;SDS011;75985;53.734;10.260;2024-03-23T04:32:52;9.20;;;2.90;;
82417;SDS011;75985;53.734;10.260;2024-03-23T04:35:56;8.20;;;2.52;;
82417;SDS011;75985;53.734;10.260;2024-03-23T04:39:01;10.45;;;3.72;;
82417;SDS011;75985;53.734;10.260;2024-03-23T04:42:06;9.85;;;3.00;;
82417;SDS011;75985;53.734;10.260;2024-03-23T04:45:11;4.85;;;2.80;;
82417;SDS011;75985;53.734;10.260;2024-03-23T04:48:15;2.62;;;1.87;;
82417;SDS011;75985;53.734;10.260;2024-03-23T04:51:20;8.23;;;2.67;;
82417;SDS011;75985;53.734;10.260;2024-03-23T04:54:25;5.70;;;2.02;;
82417;SDS011;75985;53.734;10.260;2024-03-23T04:57:31;6.45;;;1.98;;
82417;SDS011;75985;53.734;10.260;2024-03-23T05:00:36;6.28;;;2.45;;
82417;SDS011;75985;53.734;10.260;2024-03-23T05:03:40;9.65;;;2.92;;
82417;SDS011;75985;53.734;10.260;2024-03-23T05:06:45;6.72;;;2.90;;
82417;SDS011;75985;53.734;10.260;2024-03-23T05:09:49;8.98;;;2.70;;
82417;SDS011;75985;53.734;10.260;2024-03-23T05:12:54;7.30;;;2.80;;
82417;SDS011;75985;53.734;10.260;2024-03-23T05:15:58;3.92;;;2.02;;
82417;SDS011;75985;53.734;10.260;2024-03-23T05:19:03;13.75;;;3.77;;
82417;SDS011;75985;53.734;10.260;2024-03-23T05:22:07;10.72;;;3.70;;
82417;SDS011;75985;53.734;10.260;2024-03-23T05:25:12;15.48;;;4.15;;
82417;SDS011;75985;53.734;10.260;2024-03-23T05:28:18;12.65;;;3.52;;
82417;SDS011;75985;53.734;10.260;2024-03-23T05:31:30;12.80;;;3.62;;
82417;SDS011;75985;53.734;10.260;2024-03-23T05:34:30;8.98;;;2.85;;
82417;SDS011;75985;53.734;10.260;2024-03-23T05:37:34;8.40;;;3.45;;
82417;SDS011;75985;53.734;10.260;2024-03-23T05:40:40;9.45;;;3.42;;
82417;SDS011;75985;53.734;10.260;2024-03-23T05:43:44;11.33;;;3.62;;
82417;SDS011;75985;53.734;10.260;2024-03-23T05:46:49;12.00;;;4.00;;
82417;SDS011;75985;53.734;10.260;2024-03-23T05:49:53;9.88;;;3.90;;
82417;SDS011;75985;53.734;10.260;2024-03-23T05:52:57;6.50;;;2.80;;
82417;SDS011;75985;53.734;10.260;2024-03-23T05:56:03;6.25;;;3.08;;
82417;SDS011;75985;53.734;10.260;2024-03-23T05:59:08;22.80;;;5.12;;
82417;SDS011;75985;53.734;10.260;2024-03-23T06:02:13;10.10;;;3.70;;
82417;SDS011;75985;53.734;10.260;2024-03-23T06:05:17;12.00;;;3.80;;
82417;SDS011;75985;53.734;10.260;2024-03-23T06:08:22;16.37;;;3.50;;
82417;SDS011;75985;53.734;10.260;2024-03-23T06:11:27;9.45;;;3.00;;
82417;SDS011;75985;53.734;10.260;2024-03-23T06:14:31;12.47;;;3.67;;
82417;SDS011;75985;53.734;10.260;2024-03-23T06:17:36;18.45;;;4.10;;
82417;SDS011;75985;53.734;10.260;2024-03-23T06:20:41;14.80;;;3.77;;
82417;SDS011;75985;53.734;10.260;2024-03-23T06:23:45;21.30;;;4.87;;
82417;SDS011;75985;53.734;10.260;2024-03-23T06:26:52;17.32;;;3.85;;
82417;SDS011;75985;53.734;10.260;2024-03-23T06:29:56;10.60;;;3.72;;
82417;SDS011;75985;53.734;10.260;2024-03-23T06:33:01;13.62;;;3.52;;
82417;SDS011;75985;53.734;10.260;2024-03-23T06:36:06;16.50;;;4.05;;
82417;SDS011;75985;53.734;10.260;2024-03-23T06:39:13;13.22;;;3.55;;
82417;SDS011;75985;53.734;10.260;2024-03-23T06:42:18;13.72;;;4.10;;
82417;SDS011;75985;53.734;10.260;2024-03-23T06:45:23;16.02;;;3.98;;
82417;SDS011;75985;53.734;10.260;2024-03-23T06:48:27;18.65;;;4.85;;
82417;SDS011;75985;53.734;10.260;2024-03-23T06:51:32;32.45;;;5.53;;
82417;SDS011;75985;53.734;10.260;2024-03-23T06:54:36;15.88;;;4.45;;
82417;SDS011;75985;53.734;10.260;2024-03-23T06:57:41;14.63;;;3.83;;
82417;SDS011;75985;53.734;10.260;2024-03-23T07:00:45;19.30;;;4.22;;
82417;SDS011;75985;53.734;10.260;2024-03-23T07:03:50;13.32;;;3.95;;
82417;SDS011;75985;53.734;10.260;2024-03-23T07:06:54;10.48;;;3.58;;
82417;SDS011;75985;53.734;10.260;2024-03-23T07:09:59;12.43;;;3.10;;
82417;SDS011;75985;53.734;10.260;2024-03-23T07:13:03;14.87;;;3.58;;
82417;SDS011;75985;53.734;10.260;2024-03-23T07:16:08;14.07;;;3.92;;
82417;SDS011;75985;53.734;10.260;2024-03-23T07:19:12;19.40;;;4.55;;
82417;SDS011;75985;53.734;10.260;2024-03-23T07:22:18;16.23;;;4.25;;
82417;SDS011;75985;53.734;10.260;2024-03-23T07:25:23;19.82;;;4.47;;
82417;SDS011;75985;53.734;10.260;2024-03-23T07:28:29;26.15;;;4.78;;
82417;SDS011;75985;53.734;10.260;2024-03-23T07:31:38;21.75;;;4.90;;
82417;SDS011;75985;53.734;10.260;2024-03-23T07:34:44;16.20;;;4.50;;
82417;SDS011;75985;53.734;10.260;2024-03-23T07:37:48;17.37;;;4.55;;
82417;SDS011;75985;53.734;10.260;2024-03-23T07:40:52;17.48;;;4.17;;
82417;SDS011;75985;53.734;10.260;2024-03-23T07:44:12;24.80;;;4.67;;
82417;SDS011;75985;53.734;10.260;2024-03-23T07:47:16;18.00;;;4.15;;
82417;SDS011;75985;53.734;10.260;2024-03-23T07:50:21;17.45;;;4.33;;
82417;SDS011;75985;53.734;10.260;2024-03-23T07:53:26;21.25;;;4.67;;
82417;SDS011;75985;53.734;10.260;2024-03-23T07:56:32;18.75;;;5.12;;
82417;SDS011;75985;53.734;10.260;2024-03-23T07:59:36;22.82;;;4.87;;
82417;SDS011;75985;53.734;10.260;2024-03-23T08:02:41;20.17;;;4.72;;
82417;SDS011;75985;53.734;10.260;2024-03-23T08:05:46;16.20;;;4.37;;
82417;SDS011;75985;53.734;10.260;2024-03-23T08:08:57;20.48;;;4.62;;
82417;SDS011;75985;53.734;10.260;2024-03-23T08:12:05;19.80;;;4.20;;
82417;SDS011;75985;53.734;10.260;2024-03-23T08:15:09;16.55;;;4.58;;
82417;SDS011;75985;53.734;10.260;2024-03-23T08:18:14;22.05;;;4.72;;
82417;SDS011;75985;53.734;10.260;2024-03-23T08:21:18;16.80;;;3.75;;
82417;SDS011;75985;53.734;10.260;2024-03-23T08:24:23;18.12;;;4.55;;
82417;SDS011;75985;53.734;10.260;2024-03-23T08:27:27;22.32;;;4.75;;
82417;SDS011;75985;53.734;10.260;2024-03-23T08:30:34;17.77;;;3.75;;
82417;SDS011;75985;53.734;10.260;2024-03-23T08:33:38;16.85;;;3.87;;
82417;SDS011;75985;53.734;10.260;2024-03-23T08:36:44;15.03;;;4.28;;
82417;SDS011;75985;53.734;10.260;2024-03-23T08:39:50;25.77;;;4.78;;
82417;SDS011;75985;53.734;10.260;2024-03-23T08:42:55;18.52;;;4.33;;
82417;SDS011;75985;53.734;10.260;2024-03-23T08:49:12;15.50;;;3.58;;
82417;SDS011;75985;53.734;10.260;2024-03-23T08:52:17;20.88;;;3.98;;
82417;SDS011;75985;53.734;10.260;2024-03-23T08:55:21;15.90;;;3.52;;
82417;SDS011;75985;53.734;10.260;2024-03-23T08:58:26;18.87;;;3.98;;
82417;SDS011;75985;53.734;10.260;2024-03-23T09:01:31;22.82;;;4.65;;
82417;SDS011;75985;53.734;10.260;2024-03-23T09:04:36;18.95;;;3.87;;
82417;SDS011;75985;53.734;10.260;2024-03-23T09:07:40;14.65;;;4.37;;
82417;SDS011;75985;53.734;10.260;2024-03-23T09:10:45;18.07;;;3.92;;
82417;SDS011;75985;53.734;10.260;2024-03-23T09:13:50;13.28;;;3.15;;
82417;SDS011;75985;53.734;10.260;2024-03-23T09:16:55;9.55;;;2.85;;
82417;SDS011;75985;53.734;10.260;2024-03-23T09:19:59;17.02;;;3.87;;
82417;SDS011;75985;53.734;10.260;2024-03-23T09:23:04;16.70;;;3.62;;
82417;SDS011;75985;53.734;10.260;2024-03-23T09:26:08;11.40;;;2.62;;
82417;SDS011;75985;53.734;10.260;2024-03-23T09:29:13;13.58;;;3.40;;
82417;SDS011;75985;53.734;10.260;2024-03-23T09:32:18;11.75;;;3.65;;
82417;SDS011;75985;53.734;10.260;2024-03-23T09:35:22;18.77;;;3.83;;
82417;SDS011;75985;53.734;10.260;2024-03-23T09:38:27;13.65;;;3.12;;
82417;SDS011;75985;53.734;10.260;2024-03-23T09:41:31;17.12;;;2.90;;
82417;SDS011;75985;53.734;10.260;2024-03-23T09:44:36;19.00;;;3.15;;
82417;SDS011;75985;53.734;10.260;2024-03-23T09:47:40;9.43;;;3.10;;
82417;SDS011;75985;53.734;10.260;2024-03-23T09:50:45;14.98;;;3.15;;
82417;SDS011;75985;53.734;10.260;2024-03-23T09:53:52;14.05;;;2.83;;
82417;SDS011;75985;53.734;10.260;2024-03-23T09:56:56;10.55;;;2.50;;
82417;SDS011;75985;53.734;10.260;2024-03-23T10:00:02;12.15;;;3.25;;
82417;SDS011;75985;53.734;10.260;2024-03-23T10:03:08;19.02;;;4.35;;
82417;SDS011;75985;53.734;10.260;2024-03-23T10:06:13;11.68;;;2.90;;
82417;SDS011;75985;53.734;10.260;2024-03-23T10:09:19;13.70;;;3.30;;
82417;SDS011;75985;53.734;10.260;2024-03-23T10:12:24;8.20;;;2.37;;
82417;SDS011;75985;53.734;10.260;2024-03-23T10:15:29;10.88;;;2.30;;
82417;SDS011;75985;53.734;10.260;2024-03-23T10:18:36;14.93;;;2.85;;
82417;SDS011;75985;53.734;10.260;2024-03-23T10:21:52;10.05;;;3.20;;
82417;SDS011;75985;53.734;10.260;2024-03-23T10:25:06;9.05;;;2.52;;
82417;SDS011;75985;53.734;10.260;2024-03-23T10:28:07;8.80;;;2.65;;
82417;SDS011;75985;53.734;10.260;2024-03-23T10:31:12;10.93;;;2.75;;
82417;SDS011;75985;53.734;10.260;2024-03-23T10:34:16;8.40;;;2.40;;
82417;SDS011;75985;53.734;10.260;2024-03-23T10:37:22;11.57;;;2.72;;
82417;SDS011;75985;53.734;10.260;2024-03-23T10:40:27;9.83;;;2.25;;
82417;SDS011;75985;53.734;10.260;2024-03-23T10:43:33;8.05;;;2.77;;
82417;SDS011;75985;53.734;10.260;2024-03-23T10:46:39;12.15;;;3.02;;
82417;SDS011;75985;53.734;10.260;2024-03-23T10:49:43;7.05;;;2.20;;
82417;SDS011;75985;53.734;10.260;2024-03-23T10:52:50;6.42;;;1.82;;
82417;SDS011;75985;53.734;10.260;2024-03-23T10:55:58;9.38;;;1.92;;
82417;SDS011;75985;53.734;10.260;2024-03-23T10:59:03;11.90;;;2.45;;
82417;SDS011;75985;53.734;10.260;2024-03-23T11:02:18;7.50;;;1.80;;
82417;SDS011;75985;53.734;10.260;2024-03-23T11:08:37;8.43;;;2.05;;
82417;SDS011;75985;53.734;10.260;2024-03-23T11:11:42;8.00;;;2.15;;
82417;SDS011;75985;53.734;10.260;2024-03-23T11:18:08;11.80;;;1.80;;
82417;SDS011;75985;53.734;10.260;2024-03-23T11:24:56;8.38;;;1.62;;
82417;SDS011;75985;53.734;10.260;2024-03-23T11:28:16;8.80;;;1.60;;
82417;SDS011;75985;53.734;10.260;2024-03-23T11:31:16;12.05;;;2.25;;
82417;SDS011;75985;53.734;10.260;2024-03-23T11:34:20;6.35;;;1.92;;
82417;SDS011;75985;53.734;10.260;2024-03-23T11:37:25;4.90;;;1.30;;
82417;SDS011;75985;53.734;10.260;2024-03-23T11:40:29;4.67;;;1.52;;
82417;SDS011;75985;53.734;10.260;2024-03-23T11:43:34;5.53;;;2.12;;
82417;SDS011;75985;53.734;10.260;2024-03-23T11:46:39;6.67;;;1.98;;
82417;SDS011;75985;53.734;10.260;2024-03-23T11:49:43;2.27;;;0.80;;
82417;SDS011;75985;53.734;10.260;2024-03-23T11:52:48;2.20;;;0.70;;
82417;SDS011;75985;53.734;10.260;2024-03-23T11:55:53;4.53;;;1.02;;
82417;SDS011;75985;53.734;10.260;2024-03-23T11:58:59;3.50;;;1.07;;
82417;SDS011;75985;53.734;10.260;2024-03-23T12:02:07;2.27;;;1.17;;
82417;SDS011;75985;53.734;10.260;2024-03-23T12:05:16;3.55;;;1.40;;
82417;SDS011;75985;53.734;10.260;2024-03-23T12:08:41;4.00;;;1.40;;
82417;SDS011;75985;53.734;10.260;2024-03-23T12:11:35;5.78;;;1.57;;
82417;SDS011;75985;53.734;10.260;2024-03-23T12:14:39;5.05;;;1.62;;
82417;SDS011;75985;53.734;10.260;2024-03-23T12:17:44;5.70;;;1.65;;
82417;SDS011;75985;53.734;10.260;2024-03-23T12:20:49;5.33;;;1.40;;
82417;SDS011;75985;53.734;10.260;2024-03-23T12:23:53;1.62;;;0.75;;
82417;SDS011;75985;53.734;10.260;2024-03-23T12:27:02;2.72;;;0.80;;
82417;SDS011;75985;53.734;10.260;2024-03-23T12:30:08;0.82;;;0.70;;
82417;SDS011;75985;53.734;10.260;2024-03-23T12:33:13;1.67;;;0.47;;
82417;SDS011;75985;53.734;10.260;2024-03-23T12:36:17;2.72;;;0.80;;
82417;SDS011;75985;53.734;10.260;2024-03-23T12:39:22;1.07;;;0.62;;
82417;SDS011;75985;53.734;10.260;2024-03-23T12:42:26;3.33;;;0.80;;
82417;SDS011;75985;53.734;10.260;2024-03-23T12:45:31;1.47;;;0.60;;
82417;SDS011;75985;53.734;10.260;2024-03-23T12:48:36;2.65;;;0.68;;
82417;SDS011;75985;53.734;10.260;2024-03-23T12:51:46;1.20;;;0.57;;
82417;SDS011;75985;53.734;10.260;2024-03-23T12:54:59;2.75;;;1.10;;
82417;SDS011;75985;53.734;10.260;2024-03-23T12:58:04;1.75;;;0.80;;
82417;SDS011;75985;53.734;10.260;2024-03-23T13:01:10;5.22;;;1.07;;
82417;SDS011;75985;53.734;10.260;2024-03-23T13:04:14;2.50;;;1.20;;
82417;SDS011;75985;53.734;10.260;2024-03-23T13:07:19;6.62;;;1.17;;
82417;SDS011;75985;53.734;10.260;2024-03-23T13:10:24;2.20;;;1.02;;
82417;SDS011;75985;53.734;10.260;2024-03-23T13:13:29;1.42;;;0.82;;
82417;SDS011;75985;53.734;10.260;2024-03-23T13:16:34;2.27;;;0.62;;
82417;SDS011;75985;53.734;10.260;2024-03-23T13:19:38;5.00;;;1.27;;
82417;SDS011;75985;53.734;10.260;2024-03-23T13:22:43;0.85;;;0.72;;
82417;SDS011;75985;53.734;10.260;2024-03-23T13:25:53;2.10;;;1.00;;
82417;SDS011;75985;53.734;10.260;2024-03-23T13:28:58;2.72;;;0.78;;
82417;SDS011;75985;53.734;10.260;2024-03-23T13:32:03;2.08;;;0.78;;
82417;SDS011;75985;53.734;10.260;2024-03-23T13:35:08;2.45;;;1.02;;
82417;SDS011;75985;53.734;10.260;2024-03-23T13:38:13;6.22;;;1.72;;
82417;SDS011;75985;53.734;10.260;2024-03-23T13:41:17;3.42;;;1.35;;
82417;SDS011;75985;53.734;10.260;2024-03-23T13:44:22;3.67;;;0.80;;
82417;SDS011;75985;53.734;10.260;2024-03-23T13:47:26;5.97;;;1.37;;
82417;SDS011;75985;53.734;10.260;2024-03-23T13:50:31;4.80;;;1.37;;
82417;SDS011;75985;53.734;10.260;2024-03-23T13:53:35;7.00;;;1.30;;
82417;SDS011;75985;53.734;10.260;2024-03-23T13:56:40;7.08;;;1.42;;
82417;SDS011;75985;53.734;10.260;2024-03-23T13:59:44;3.10;;;1.10;;
82417;SDS011;75985;53.734;10.260;2024-03-23T14:02:49;4.30;;;1.30;;
82417;SDS011;75985;53.734;10.260;2024-03-23T14:05:53;2.90;;;1.07;;
82417;SDS011;75985;53.734;10.260;2024-03-23T14:09:00;5.78;;;1.20;;
82417;SDS011;75985;53.734;10.260;2024-03-23T14:12:06;6.28;;;1.00;;
82417;SDS011;75985;53.734;10.260;2024-03-23T14:15:12;4.08;;;0.90;;
82417;SDS011;75985;53.734;10.260;2024-03-23T14:18:16;3.08;;;0.75;;
82417;SDS011;75985;53.734;10.260;2024-03-23T14:21:21;2.92;;;0.57;;
82417;SDS011;75985;53.734;10.260;2024-03-23T14:24:25;1.62;;;0.70;;
82417;SDS011;75985;53.734;10.260;2024-03-23T14:27:30;2.52;;;0.90;;
82417;SDS011;75985;53.734;10.260;2024-03-23T14:30:34;3.42;;;1.02;;
82417;SDS011;75985;53.734;10.260;2024-03-23T14:33:39;3.85;;;1.10;;
82417;SDS011;75985;53.734;10.260;2024-03-23T14:36:45;4.60;;;1.22;;
82417;SDS011;75985;53.734;10.260;2024-03-23T14:39:50;5.78;;;1.57;;
82417;SDS011;75985;53.734;10.260;2024-03-23T14:42:54;4.65;;;1.30;;
82417;SDS011;75985;53.734;10.260;2024-03-23T14:46:12;6.15;;;2.00;;
82417;SDS011;75985;53.734;10.260;2024-03-23T14:49:18;5.47;;;1.52;;
82417;SDS011;75985;53.734;10.260;2024-03-23T14:52:23;4.22;;;1.75;;
82417;SDS011;75985;53.734;10.260;2024-03-23T14:55:27;4.20;;;1.40;;
82417;SDS011;75985;53.734;10.260;2024-03-23T14:58:32;7.67;;;1.87;;
82417;SDS011;75985;53.734;10.260;2024-03-23T15:01:39;7.37;;;1.90;;
82417;SDS011;75985;53.734;10.260;2024-03-23T15:04:44;5.40;;;1.55;;
82417;SDS011;75985;53.734;10.260;2024-03-23T15:07:48;7.15;;;1.75;;
82417;SDS011;75985;53.734;10.260;2024-03-23T15:10:53;6.58;;;2.00;;
82417;SDS011;75985;53.734;10.260;2024-03-23T15:13:58;8.80;;;2.30;;
82417;SDS011;75985;53.734;10.260;2024-03-23T15:17:02;8.38;;;1.60;;
82417;SDS011;75985;53.734;10.260;2024-03-23T15:20:09;7.75;;;2.17;;
82417;SDS011;75985;53.734;10.260;2024-03-23T15:23:17;6.00;;;1.55;;
82417;SDS011;75985;53.734;10.260;2024-03-23T15:26:21;9.10;;;2.17;;
82417;SDS011;75985;53.734;10.260;2024-03-23T15:29:26;8.95;;;1.80;;
82417;SDS011;75985;53.734;10.260;2024-03-23T15:32:30;4.08;;;1.30;;
82417;SDS011;75985;53.734;10.260;2024-03-23T15:35:35;6.28;;;1.77;;
82417;SDS011;75985;53.734;10.260;2024-03-23T15:38:39;7.60;;;2.50;;
82417;SDS011;75985;53.734;10.260;2024-03-23T15:41:45;5.67;;;1.82;;
82417;SDS011;75985;53.734;10.260;2024-03-23T15:44:50;4.55;;;1.35;;
82417;SDS011;75985;53.734;10.260;2024-03-23T15:47:54;6.37;;;1.62;;
82417;SDS011;75985;53.734;10.260;2024-03-23T15:51:00;6.85;;;1.55;;
82417;SDS011;75985;53.734;10.260;2024-03-23T15:54:06;6.90;;;2.17;;
82417;SDS011;75985;53.734;10.260;2024-03-23T15:57:11;10.48;;;2.15;;
82417;SDS011;75985;53.734;10.260;2024-03-23T16:00:15;3.62;;;1.35;;
82417;SDS011;75985;53.734;10.260;2024-03-23T16:03:20;4.87;;;1.77;;
82417;SDS011;75985;53.734;10.260;2024-03-23T16:06:24;3.87;;;1.55;;
82417;SDS011;75985;53.734;10.260;2024-03-23T16:09:29;3.42;;;1.27;;
82417;SDS011;75985;53.734;10.260;2024-03-23T16:12:33;3.27;;;1.15;;
82417;SDS011;75985;53.734;10.260;2024-03-23T16:15:38;5.30;;;1.35;;
82417;SDS011;75985;53.734;10.260;2024-03-23T16:18:42;5.22;;;1.57;;
82417;SDS011;75985;53.734;10.260;2024-03-23T16:21:48;7.90;;;1.90;;
82417;SDS011;75985;53.734;10.260;2024-03-23T16:24:53;8.45;;;1.82;;
82417;SDS011;75985;53.734;10.260;2024-03-23T16:27:57;5.72;;;1.30;;
82417;SDS011;75985;53.734;10.260;2024-03-23T16:31:02;2.60;;;1.07;;
82417;SDS011;75985;53.734;10.260;2024-03-23T16:34:08;5.78;;;1.45;;
82417;SDS011;75985;53.734;10.260;2024-03-23T16:37:13;3.85;;;1.27;;
82417;SDS011;75985;53.734;10.260;2024-03-23T16:40:18;1.95;;;1.50;;
82417;SDS011;75985;53.734;10.260;2024-03-23T16:43:23;4.10;;;2.10;;
82417;SDS011;75985;53.734;10.260;2024-03-23T16:46:28;5.37;;;1.70;;
82417;SDS011;75985;53.734;10.260;2024-03-23T16:49:33;5.03;;;1.92;;
82417;SDS011;75985;53.734;10.260;2024-03-23T16:52:38;4.25;;;1.62;;
82417;SDS011;75985;53.734;10.260;2024-03-23T16:55:42;6.85;;;1.50;;
82417;SDS011;75985;53.734;10.260;2024-03-23T16:58:47;1.52;;;0.82;;
82417;SDS011;75985;53.734;10.260;2024-03-23T17:01:52;2.10;;;1.07;;
82417;SDS011;75985;53.734;10.260;2024-03-23T17:04:57;1.45;;;1.30;;
82417;SDS011;75985;53.734;10.260;2024-03-23T17:08:01;1.52;;;0.95;;
82417;SDS011;75985;53.734;10.260;2024-03-23T17:11:06;4.00;;;1.55;;
82417;SDS011;75985;53.734;10.260;2024-03-23T17:14:12;3.30;;;1.45;;
82417;SDS011;75985;53.734;10.260;2024-03-23T17:17:18;1.77;;;1.15;;
82417;SDS011;75985;53.734;10.260;2024-03-23T17:20:22;3.33;;;1.47;;
82417;SDS011;75985;53.734;10.260;2024-03-23T17:23:27;2.17;;;1.57;;
82417;SDS011;75985;53.734;10.260;2024-03-23T17:26:36;7.72;;;2.10;;
82417;SDS011;75985;53.734;10.260;2024-03-23T17:29:41;3.70;;;2.22;;
82417;SDS011;75985;53.734;10.260;2024-03-23T17:32:45;3.83;;;2.00;;
82417;SDS011;75985;53.734;10.260;2024-03-23T17:35:50;3.47;;;2.05;;
82417;SDS011;75985;53.734;10.260;2024-03-23T17:38:55;5.15;;;2.27;;
82417;SDS011;75985;53.734;10.260;2024-03-23T17:42:00;4.58;;;2.33;;
82417;SDS011;75985;53.734;10.260;2024-03-23T17:45:04;4.08;;;2.52;;
82417;SDS011;75985;53.734;10.260;2024-03-23T17:48:11;3.85;;;2.30;;
82417;SDS011;75985;53.734;10.260;2024-03-23T17:51:16;7.97;;;3.77;;
82417;SDS011;75985;53.734;10.260;2024-03-23T17:54:21;4.75;;;2.77;;
82417;SDS011;75985;53.734;10.260;2024-03-23T17:57:25;4.62;;;2.55;;
82417;SDS011;75985;53.734;10.260;2024-03-23T18:00:30;2.83;;;2.15;;
82417;SDS011;75985;53.734;10.260;2024-03-23T18:03:34;4.97;;;2.40;;
82417;SDS011;75985;53.734;10.260;2024-03-23T18:06:39;4.00;;;2.22;;
82417;SDS011;75985;53.734;10.260;2024-03-23T18:09:43;3.02;;;2.20;;
82417;SDS011;75985;53.734;10.260;2024-03-23T18:12:48;2.42;;;1.80;;
82417;SDS011;75985;53.734;10.260;2024-03-23T18:15:56;2.85;;;1.90;;
82417;SDS011;75985;53.734;10.260;2024-03-23T18:19:01;6.47;;;2.00;;
82417;SDS011;75985;53.734;10.260;2024-03-23T18:22:05;2.35;;;1.70;;
82417;SDS011;75985;53.734;10.260;2024-03-23T18:25:10;1.72;;;1.50;;
82417;SDS011;75985;53.734;10.260;2024-03-23T18:28:14;3.08;;;1.70;;
82417;SDS011;75985;53.734;10.260;2024-03-23T18:31:19;2.40;;;1.60;;
82417;SDS011;75985;53.734;10.260;2024-03-23T18:34:23;4.83;;;1.82;;
82417;SDS011;75985;53.734;10.260;2024-03-23T18:37:28;3.47;;;2.00;;
82417;SDS011;75985;53.734;10.260;2024-03-23T18:40:32;4.28;;;2.12;;
82417;SDS011;75985;53.734;10.260;2024-03-23T18:43:37;3.00;;;2.00;;
82417;SDS011;75985;53.734;10.260;2024-03-23T18:46:41;4.60;;;2.10;;
82417;SDS011;75985;53.734;10.260;2024-03-23T18:49:47;3.17;;;1.87;;
82417;SDS011;75985;53.734;10.260;2024-03-23T18:52:51;4.80;;;3.00;;
82417;SDS011;75985;53.734;10.260;2024-03-23T18:55:56;7.58;;;3.62;;
82417;SDS011;75985;53.734;10.260;2024-03-23T18:59:02;4.58;;;3.60;;
82417;SDS011;75985;53.734;10.260;2024-03-23T19:02:07;4.87;;;2.77;;
82417;SDS011;75985;53.734;10.260;2024-03-23T19:05:11;4.60;;;2.67;;
82417;SDS011;75985;53.734;10.260;2024-03-23T19:08:16;3.42;;;2.00;;
82417;SDS011;75985;53.734;10.260;2024-03-23T19:11:20;4.33;;;2.58;;
82417;SDS011;75985;53.734;10.260;2024-03-23T19:14:25;3.22;;;2.40;;
82417;SDS011;75985;53.734;10.260;2024-03-23T19:17:29;3.77;;;2.70;;